sensor_id;sensor_type;location;lat;lon;timestamp;temperature;humidity
2621;DHT22;1320;48.128;11.592;2023-02-13T00:02:08;4.00;99.90
2621;DHT22;1320;48.128;11.592;2023-02-13T00:04:34;4.00;99.90
2621;DHT22;1320;48.128;11.592;2023-02-13T00:07:00;4.10;99.90
2621;DHT22;1320;48.128;11.592;2023-02-13T00:09:26;4.00;99.90
2621;DHT22;1320;48.128;11.592;2023-02-13T00:11:51;4.10;99.90
2621;DHT22;1320;48.128;11.592;2023-02-13T00:14:17;4.20;99.90
2621;DHT22;1320;48.128;11.592;2023-02-13T00:16:43;4.20;99.90
2621;DHT22;1320;48.128;11.592;2023-02-13T00:19:09;4.20;99.90
2621;DHT22;1320;48.128;11.592;2023-02-13T00:21:34;4.20;99.90
2621;DHT22;1320;48.128;11.592;2023-02-13T00:24:00;4.20;99.90
2621;DHT22;1320;48.128;11.592;2023-02-13T00:26:25;4.30;99.90
2621;DHT22;1320;48.128;11.592;2023-02-13T00:28:51;4.30;99.90
2621;DHT22;1320;48.128;11.592;2023-02-13T00:31:20;4.30;99.90
2621;DHT22;1320;48.128;11.592;2023-02-13T00:33:46;4.40;99.90
2621;DHT22;1320;48.128;11.592;2023-02-13T00:36:14;4.40;99.90
2621;DHT22;1320;48.128;11.592;2023-02-13T00:38:41;4.40;99.90
2621;DHT22;1320;48.128;11.592;2023-02-13T00:41:07;4.50;99.90
2621;DHT22;1320;48.128;11.592;2023-02-13T00:43:34;4.40;99.90
2621;DHT22;1320;48.128;11.592;2023-02-13T00:46:00;4.40;99.90
2621;DHT22;1320;48.128;11.592;2023-02-13T00:48:27;4.40;99.90
2621;DHT22;1320;48.128;11.592;2023-02-13T00:50:53;4.40;99.90
2621;DHT22;1320;48.128;11.592;2023-02-13T00:53:20;4.40;99.90
2621;DHT22;1320;48.128;11.592;2023-02-13T00:55:47;4.40;99.90
2621;DHT22;1320;48.128;11.592;2023-02-13T00:58:13;4.40;99.90
2621;DHT22;1320;48.128;11.592;2023-02-13T01:00:39;4.40;99.90
2621;DHT22;1320;48.128;11.592;2023-02-13T01:03:05;4.40;99.90
2621;DHT22;1320;48.128;11.592;2023-02-13T01:05:31;4.40;99.90
2621;DHT22;1320;48.128;11.592;2023-02-13T01:07:57;4.40;99.90
2621;DHT22;1320;48.128;11.592;2023-02-13T01:10:23;4.50;99.90
2621;DHT22;1320;48.128;11.592;2023-02-13T01:12:49;4.50;99.90
2621;DHT22;1320;48.128;11.592;2023-02-13T01:15:17;4.50;99.90
2621;DHT22;1320;48.128;11.592;2023-02-13T01:17:42;4.50;99.90
2621;DHT22;1320;48.128;11.592;2023-02-13T01:20:10;4.50;99.90
2621;DHT22;1320;48.128;11.592;2023-02-13T01:22:36;4.50;99.90
2621;DHT22;1320;48.128;11.592;2023-02-13T01:25:02;4.50;99.90
2621;DHT22;1320;48.128;11.592;2023-02-13T01:27:28;4.50;99.90
2621;DHT22;1320;48.128;11.592;2023-02-13T01:29:54;4.40;99.90
2621;DHT22;1320;48.128;11.592;2023-02-13T01:32:20;4.40;99.90
2621;DHT22;1320;48.128;11.592;2023-02-13T01:34:46;4.40;99.90
2621;DHT22;1320;48.128;11.592;2023-02-13T01:37:12;4.40;99.90
2621;DHT22;1320;48.128;11.592;2023-02-13T01:39:37;4.40;99.90
2621;DHT22;1320;48.128;11.592;2023-02-13T01:42:03;4.40;99.90
2621;DHT22;1320;48.128;11.592;2023-02-13T01:47:15;4.40;99.90
2621;DHT22;1320;48.128;11.592;2023-02-13T01:49:44;4.30;99.90
2621;DHT22;1320;48.128;11.592;2023-02-13T01:52:11;4.30;99.90
2621;DHT22;1320;48.128;11.592;2023-02-13T01:54:37;4.30;99.90
2621;DHT22;1320;48.128;11.592;2023-02-13T01:57:04;4.30;99.90
2621;DHT22;1320;48.128;11.592;2023-02-13T01:59:36;4.30;99.90
2621;DHT22;1320;48.128;11.592;2023-02-13T02:02:04;4.30;99.90
2621;DHT22;1320;48.128;11.592;2023-02-13T02:04:32;4.30;99.90
2621;DHT22;1320;48.128;11.592;2023-02-13T02:07:07;4.30;99.90
2621;DHT22;1320;48.128;11.592;2023-02-13T02:09:38;4.40;99.90
2621;DHT22;1320;48.128;11.592;2023-02-13T02:12:17;4.40;99.90
2621;DHT22;1320;48.128;11.592;2023-02-13T02:14:47;4.40;99.90
2621;DHT22;1320;48.128;11.592;2023-02-13T02:17:13;4.40;99.90
2621;DHT22;1320;48.128;11.592;2023-02-13T02:37:03;4.40;99.90
2621;DHT22;1320;48.128;11.592;2023-02-13T02:42:35;4.40;99.90
2621;DHT22;1320;48.128;11.592;2023-02-13T02:51:07;4.40;99.90
2621;DHT22;1320;48.128;11.592;2023-02-13T02:53:44;4.40;99.90
2621;DHT22;1320;48.128;11.592;2023-02-13T02:56:16;4.30;99.90
2621;DHT22;1320;48.128;11.592;2023-02-13T02:58:50;4.30;99.90
2621;DHT22;1320;48.128;11.592;2023-02-13T03:01:35;4.30;99.90
2621;DHT22;1320;48.128;11.592;2023-02-13T03:04:34;4.30;99.90
2621;DHT22;1320;48.128;11.592;2023-02-13T03:07:19;4.30;99.90
2621;DHT22;1320;48.128;11.592;2023-02-13T03:09:48;4.30;99.90
2621;DHT22;1320;48.128;11.592;2023-02-13T03:13:05;4.30;99.90
2621;DHT22;1320;48.128;11.592;2023-02-13T03:15:47;4.30;99.90
2621;DHT22;1320;48.128;11.592;2023-02-13T03:18:35;4.20;99.90
2621;DHT22;1320;48.128;11.592;2023-02-13T03:27:32;4.10;99.90
2621;DHT22;1320;48.128;11.592;2023-02-13T03:36:10;4.00;99.90
2621;DHT22;1320;48.128;11.592;2023-02-13T03:41:56;4.00;99.90
2621;DHT22;1320;48.128;11.592;2023-02-13T03:47:53;4.00;99.90
2621;DHT22;1320;48.128;11.592;2023-02-13T03:50:20;4.10;99.90
2621;DHT22;1320;48.128;11.592;2023-02-13T03:52:54;4.10;99.90
2621;DHT22;1320;48.128;11.592;2023-02-13T03:55:24;4.10;99.90
2621;DHT22;1320;48.128;11.592;2023-02-13T03:58:23;4.10;99.90
2621;DHT22;1320;48.128;11.592;2023-02-13T04:01:14;4.10;99.90
2621;DHT22;1320;48.128;11.592;2023-02-13T04:03:49;4.20;99.90
2621;DHT22;1320;48.128;11.592;2023-02-13T04:06:20;4.20;99.90
2621;DHT22;1320;48.128;11.592;2023-02-13T04:08:48;4.20;99.90
2621;DHT22;1320;48.128;11.592;2023-02-13T04:11:19;4.20;99.90
2621;DHT22;1320;48.128;11.592;2023-02-13T04:13:58;4.20;99.90
2621;DHT22;1320;48.128;11.592;2023-02-13T04:16:37;4.10;99.90
2621;DHT22;1320;48.128;11.592;2023-02-13T04:19:05;4.00;99.90
2621;DHT22;1320;48.128;11.592;2023-02-13T04:21:37;4.00;99.90
2621;DHT22;1320;48.128;11.592;2023-02-13T04:24:04;4.00;99.90
2621;DHT22;1320;48.128;11.592;2023-02-13T04:26:44;3.90;99.90
2621;DHT22;1320;48.128;11.592;2023-02-13T04:29:10;3.90;99.90
2621;DHT22;1320;48.128;11.592;2023-02-13T04:31:36;3.80;99.90
2621;DHT22;1320;48.128;11.592;2023-02-13T04:34:01;3.80;99.90
2621;DHT22;1320;48.128;11.592;2023-02-13T04:36:27;3.80;99.90
2621;DHT22;1320;48.128;11.592;2023-02-13T04:38:53;3.80;99.90
2621;DHT22;1320;48.128;11.592;2023-02-13T04:41:18;3.90;99.90
2621;DHT22;1320;48.128;11.592;2023-02-13T04:43:44;3.80;99.90
2621;DHT22;1320;48.128;11.592;2023-02-13T04:46:10;3.80;99.90
2621;DHT22;1320;48.128;11.592;2023-02-13T04:48:35;3.80;99.90
2621;DHT22;1320;48.128;11.592;2023-02-13T04:51:01;3.80;99.90
2621;DHT22;1320;48.128;11.592;2023-02-13T04:53:27;3.90;99.90
2621;DHT22;1320;48.128;11.592;2023-02-13T04:55:52;3.90;99.90
2621;DHT22;1320;48.128;11.592;2023-02-13T04:58:18;3.80;99.90
2621;DHT22;1320;48.128;11.592;2023-02-13T05:00:44;3.90;99.90
2621;DHT22;1320;48.128;11.592;2023-02-13T05:03:11;3.80;99.90
2621;DHT22;1320;48.128;11.592;2023-02-13T05:05:38;3.90;99.90
2621;DHT22;1320;48.128;11.592;2023-02-13T05:08:07;3.80;99.90
2621;DHT22;1320;48.128;11.592;2023-02-13T05:10:33;3.80;99.90
2621;DHT22;1320;48.128;11.592;2023-02-13T05:12:59;3.70;99.90
2621;DHT22;1320;48.128;11.592;2023-02-13T05:15:25;3.70;99.90
2621;DHT22;1320;48.128;11.592;2023-02-13T05:17:50;3.70;99.90
2621;DHT22;1320;48.128;11.592;2023-02-13T05:20:17;3.80;99.90
2621;DHT22;1320;48.128;11.592;2023-02-13T05:22:47;3.80;99.90
2621;DHT22;1320;48.128;11.592;2023-02-13T05:25:32;3.70;99.90
2621;DHT22;1320;48.128;11.592;2023-02-13T05:27:58;3.80;99.90
2621;DHT22;1320;48.128;11.592;2023-02-13T05:30:24;3.70;99.90
2621;DHT22;1320;48.128;11.592;2023-02-13T05:32:50;3.70;99.90
2621;DHT22;1320;48.128;11.592;2023-02-13T05:35:20;3.60;99.90
2621;DHT22;1320;48.128;11.592;2023-02-13T05:37:46;3.60;99.90
2621;DHT22;1320;48.128;11.592;2023-02-13T05:40:12;3.60;99.90
2621;DHT22;1320;48.128;11.592;2023-02-13T05:42:41;3.60;99.90
2621;DHT22;1320;48.128;11.592;2023-02-13T05:45:08;3.60;99.90
2621;DHT22;1320;48.128;11.592;2023-02-13T05:47:34;3.60;99.90
2621;DHT22;1320;48.128;11.592;2023-02-13T05:50:00;3.60;99.90
2621;DHT22;1320;48.128;11.592;2023-02-13T05:52:26;3.60;99.90
2621;DHT22;1320;48.128;11.592;2023-02-13T05:54:51;3.60;99.90
2621;DHT22;1320;48.128;11.592;2023-02-13T05:57:17;3.60;99.90
2621;DHT22;1320;48.128;11.592;2023-02-13T05:59:43;3.70;99.90
2621;DHT22;1320;48.128;11.592;2023-02-13T06:02:09;3.70;99.90
2621;DHT22;1320;48.128;11.592;2023-02-13T06:04:34;3.70;99.90
2621;DHT22;1320;48.128;11.592;2023-02-13T06:07:00;3.80;99.90
2621;DHT22;1320;48.128;11.592;2023-02-13T06:09:26;3.80;99.90
2621;DHT22;1320;48.128;11.592;2023-02-13T06:11:51;3.80;99.90
2621;DHT22;1320;48.128;11.592;2023-02-13T06:14:17;3.80;99.90
2621;DHT22;1320;48.128;11.592;2023-02-13T06:16:43;3.80;99.90
2621;DHT22;1320;48.128;11.592;2023-02-13T06:19:08;3.80;99.90
2621;DHT22;1320;48.128;11.592;2023-02-13T06:21:34;3.70;99.90
2621;DHT22;1320;48.128;11.592;2023-02-13T06:24:06;3.70;99.90
2621;DHT22;1320;48.128;11.592;2023-02-13T06:26:33;3.70;99.90
2621;DHT22;1320;48.128;11.592;2023-02-13T06:28:59;3.70;99.90
2621;DHT22;1320;48.128;11.592;2023-02-13T06:31:25;3.70;99.90
2621;DHT22;1320;48.128;11.592;2023-02-13T06:33:51;3.60;99.90
2621;DHT22;1320;48.128;11.592;2023-02-13T06:36:16;3.60;99.90
2621;DHT22;1320;48.128;11.592;2023-02-13T06:38:42;3.70;99.90
2621;DHT22;1320;48.128;11.592;2023-02-13T06:41:08;3.60;99.90
2621;DHT22;1320;48.128;11.592;2023-02-13T06:43:34;3.60;99.90
2621;DHT22;1320;48.128;11.592;2023-02-13T06:46:04;3.60;99.90
2621;DHT22;1320;48.128;11.592;2023-02-13T06:48:29;3.60;99.90
2621;DHT22;1320;48.128;11.592;2023-02-13T06:50:55;3.70;99.90
2621;DHT22;1320;48.128;11.592;2023-02-13T06:53:21;3.70;99.90
2621;DHT22;1320;48.128;11.592;2023-02-13T06:55:53;3.70;99.90
2621;DHT22;1320;48.128;11.592;2023-02-13T06:58:21;3.70;99.90
2621;DHT22;1320;48.128;11.592;2023-02-13T07:00:47;3.70;99.90
2621;DHT22;1320;48.128;11.592;2023-02-13T07:03:13;3.70;99.90
2621;DHT22;1320;48.128;11.592;2023-02-13T07:05:40;3.80;99.90
2621;DHT22;1320;48.128;11.592;2023-02-13T07:08:07;3.90;99.90
2621;DHT22;1320;48.128;11.592;2023-02-13T07:10:33;3.90;99.90
2621;DHT22;1320;48.128;11.592;2023-02-13T07:12:58;4.00;99.90
2621;DHT22;1320;48.128;11.592;2023-02-13T07:15:24;4.00;99.90
2621;DHT22;1320;48.128;11.592;2023-02-13T07:17:57;4.00;99.90
2621;DHT22;1320;48.128;11.592;2023-02-13T07:20:24;4.00;99.90
2621;DHT22;1320;48.128;11.592;2023-02-13T07:22:50;3.90;99.90
2621;DHT22;1320;48.128;11.592;2023-02-13T07:25:16;3.90;99.90
2621;DHT22;1320;48.128;11.592;2023-02-13T07:27:42;3.80;99.90
2621;DHT22;1320;48.128;11.592;2023-02-13T07:30:08;3.80;99.90
2621;DHT22;1320;48.128;11.592;2023-02-13T07:32:34;3.80;99.90
2621;DHT22;1320;48.128;11.592;2023-02-13T07:34:59;3.70;99.90
2621;DHT22;1320;48.128;11.592;2023-02-13T07:37:27;3.80;99.90
2621;DHT22;1320;48.128;11.592;2023-02-13T07:39:53;3.70;99.90
2621;DHT22;1320;48.128;11.592;2023-02-13T07:42:18;3.80;99.90
2621;DHT22;1320;48.128;11.592;2023-02-13T07:44:44;3.90;99.90
2621;DHT22;1320;48.128;11.592;2023-02-13T07:47:10;3.90;99.90
2621;DHT22;1320;48.128;11.592;2023-02-13T07:49:35;4.00;99.90
2621;DHT22;1320;48.128;11.592;2023-02-13T07:52:02;4.00;99.90
2621;DHT22;1320;48.128;11.592;2023-02-13T07:54:28;4.00;99.90
2621;DHT22;1320;48.128;11.592;2023-02-13T07:56:54;4.00;99.90
2621;DHT22;1320;48.128;11.592;2023-02-13T07:59:20;4.00;99.90
2621;DHT22;1320;48.128;11.592;2023-02-13T08:01:45;4.00;99.90
2621;DHT22;1320;48.128;11.592;2023-02-13T08:04:11;4.00;99.90
2621;DHT22;1320;48.128;11.592;2023-02-13T08:06:40;4.00;99.90
2621;DHT22;1320;48.128;11.592;2023-02-13T08:09:07;4.10;99.90
2621;DHT22;1320;48.128;11.592;2023-02-13T08:11:59;4.10;99.90
2621;DHT22;1320;48.128;11.592;2023-02-13T08:14:26;4.20;99.90
2621;DHT22;1320;48.128;11.592;2023-02-13T08:16:53;4.30;99.90
2621;DHT22;1320;48.128;11.592;2023-02-13T08:19:19;4.30;99.90
2621;DHT22;1320;48.128;11.592;2023-02-13T08:21:44;4.40;99.90
2621;DHT22;1320;48.128;11.592;2023-02-13T08:24:11;4.40;99.90
2621;DHT22;1320;48.128;11.592;2023-02-13T08:26:37;4.40;99.90
2621;DHT22;1320;48.128;11.592;2023-02-13T08:29:06;4.40;99.90
2621;DHT22;1320;48.128;11.592;2023-02-13T08:31:32;4.50;99.90
2621;DHT22;1320;48.128;11.592;2023-02-13T08:33:57;4.50;99.90
2621;DHT22;1320;48.128;11.592;2023-02-13T08:36:23;4.50;99.90
2621;DHT22;1320;48.128;11.592;2023-02-13T08:38:49;4.50;99.90
2621;DHT22;1320;48.128;11.592;2023-02-13T08:41:14;4.50;99.90
2621;DHT22;1320;48.128;11.592;2023-02-13T08:43:42;4.60;99.90
2621;DHT22;1320;48.128;11.592;2023-02-13T08:46:08;4.60;99.90
2621;DHT22;1320;48.128;11.592;2023-02-13T08:48:34;4.60;99.90
2621;DHT22;1320;48.128;11.592;2023-02-13T08:51:03;4.60;99.90
2621;DHT22;1320;48.128;11.592;2023-02-13T08:53:29;4.60;99.90
2621;DHT22;1320;48.128;11.592;2023-02-13T08:55:56;4.60;99.90
2621;DHT22;1320;48.128;11.592;2023-02-13T08:58:22;4.60;99.90
2621;DHT22;1320;48.128;11.592;2023-02-13T09:00:48;4.50;99.90
2621;DHT22;1320;48.128;11.592;2023-02-13T09:03:14;4.60;99.90
2621;DHT22;1320;48.128;11.592;2023-02-13T09:05:40;4.60;99.90
2621;DHT22;1320;48.128;11.592;2023-02-13T09:08:05;4.60;99.90
2621;DHT22;1320;48.128;11.592;2023-02-13T09:10:32;4.60;99.90
2621;DHT22;1320;48.128;11.592;2023-02-13T09:12:59;4.70;99.90
2621;DHT22;1320;48.128;11.592;2023-02-13T09:15:26;4.70;99.90
2621;DHT22;1320;48.128;11.592;2023-02-13T09:17:51;4.70;99.90
2621;DHT22;1320;48.128;11.592;2023-02-13T09:20:17;4.60;99.90
2621;DHT22;1320;48.128;11.592;2023-02-13T09:22:43;4.60;99.90
2621;DHT22;1320;48.128;11.592;2023-02-13T09:25:09;4.60;99.90
2621;DHT22;1320;48.128;11.592;2023-02-13T09:27:35;4.60;99.90
2621;DHT22;1320;48.128;11.592;2023-02-13T09:30:01;4.50;99.90
2621;DHT22;1320;48.128;11.592;2023-02-13T09:32:27;4.50;99.90
2621;DHT22;1320;48.128;11.592;2023-02-13T09:34:53;4.50;99.90
2621;DHT22;1320;48.128;11.592;2023-02-13T09:37:19;4.50;99.90
2621;DHT22;1320;48.128;11.592;2023-02-13T09:39:44;4.50;99.90
2621;DHT22;1320;48.128;11.592;2023-02-13T09:42:19;4.40;99.90
2621;DHT22;1320;48.128;11.592;2023-02-13T09:44:49;4.40;99.90
2621;DHT22;1320;48.128;11.592;2023-02-13T09:47:31;4.40;99.90
2621;DHT22;1320;48.128;11.592;2023-02-13T09:50:23;4.30;99.90
2621;DHT22;1320;48.128;11.592;2023-02-13T09:52:51;4.30;99.90
2621;DHT22;1320;48.128;11.592;2023-02-13T09:55:28;4.40;99.90
2621;DHT22;1320;48.128;11.592;2023-02-13T10:00:47;4.50;99.90
2621;DHT22;1320;48.128;11.592;2023-02-13T10:03:36;4.60;99.90
2621;DHT22;1320;48.128;11.592;2023-02-13T10:06:13;4.60;99.90
2621;DHT22;1320;48.128;11.592;2023-02-13T10:09:08;4.70;99.90
2621;DHT22;1320;48.128;11.592;2023-02-13T10:17:31;4.70;99.90
2621;DHT22;1320;48.128;11.592;2023-02-13T10:19:59;4.70;99.90
2621;DHT22;1320;48.128;11.592;2023-02-13T10:23:07;4.70;99.90
2621;DHT22;1320;48.128;11.592;2023-02-13T10:25:51;4.80;99.90
2621;DHT22;1320;48.128;11.592;2023-02-13T10:28:46;4.80;99.90
2621;DHT22;1320;48.128;11.592;2023-02-13T10:31:33;4.80;99.90
2621;DHT22;1320;48.128;11.592;2023-02-13T10:34:01;4.80;99.90
2621;DHT22;1320;48.128;11.592;2023-02-13T10:36:33;4.80;99.90
2621;DHT22;1320;48.128;11.592;2023-02-13T10:41:51;4.80;99.90
2621;DHT22;1320;48.128;11.592;2023-02-13T10:52:31;4.80;99.90
2621;DHT22;1320;48.128;11.592;2023-02-13T11:00:23;5.10;99.90
2621;DHT22;1320;48.128;11.592;2023-02-13T11:03:19;5.20;99.90
2621;DHT22;1320;48.128;11.592;2023-02-13T11:05:45;5.30;99.90
2621;DHT22;1320;48.128;11.592;2023-02-13T11:08:37;5.40;99.90
2621;DHT22;1320;48.128;11.592;2023-02-13T11:11:27;5.50;99.90
2621;DHT22;1320;48.128;11.592;2023-02-13T11:19:50;5.50;99.90
2621;DHT22;1320;48.128;11.592;2023-02-13T11:25:11;5.50;99.90
2621;DHT22;1320;48.128;11.592;2023-02-13T11:27:41;5.60;99.90
2621;DHT22;1320;48.128;11.592;2023-02-13T11:35:41;5.50;99.90
2621;DHT22;1320;48.128;11.592;2023-02-13T11:40:48;5.30;99.90
2621;DHT22;1320;48.128;11.592;2023-02-13T11:43:29;5.30;99.90
2621;DHT22;1320;48.128;11.592;2023-02-13T11:46:04;5.40;99.90
2621;DHT22;1320;48.128;11.592;2023-02-13T11:48:31;5.50;99.90
2621;DHT22;1320;48.128;11.592;2023-02-13T11:50:57;5.50;99.90
2621;DHT22;1320;48.128;11.592;2023-02-13T11:53:30;5.50;99.90
2621;DHT22;1320;48.128;11.592;2023-02-13T11:56:11;5.60;99.90
2621;DHT22;1320;48.128;11.592;2023-02-13T11:58:38;5.60;99.90
2621;DHT22;1320;48.128;11.592;2023-02-13T12:03:57;5.70;99.90
2621;DHT22;1320;48.128;11.592;2023-02-13T12:06:22;5.70;99.90
2621;DHT22;1320;48.128;11.592;2023-02-13T12:08:48;5.80;99.90
2621;DHT22;1320;48.128;11.592;2023-02-13T12:11:44;5.80;99.90
2621;DHT22;1320;48.128;11.592;2023-02-13T12:14:15;5.90;99.90
2621;DHT22;1320;48.128;11.592;2023-02-13T12:16:56;5.90;99.90
2621;DHT22;1320;48.128;11.592;2023-02-13T12:41:42;5.90;99.90
2621;DHT22;1320;48.128;11.592;2023-02-13T12:49:26;6.10;99.90
2621;DHT22;1320;48.128;11.592;2023-02-13T12:52:14;6.20;99.90
2621;DHT22;1320;48.128;11.592;2023-02-13T13:00:42;6.30;99.90
2621;DHT22;1320;48.128;11.592;2023-02-13T13:17:44;6.30;99.90
2621;DHT22;1320;48.128;11.592;2023-02-13T13:28:31;6.20;99.90
2621;DHT22;1320;48.128;11.592;2023-02-13T13:30:59;6.30;99.90
2621;DHT22;1320;48.128;11.592;2023-02-13T13:33:26;6.30;99.90
2621;DHT22;1320;48.128;11.592;2023-02-13T13:41:14;6.20;99.90
2621;DHT22;1320;48.128;11.592;2023-02-13T13:46:20;6.30;99.90
2621;DHT22;1320;48.128;11.592;2023-02-13T13:51:37;6.30;99.90
2621;DHT22;1320;48.128;11.592;2023-02-13T14:07:36;6.20;99.90
2621;DHT22;1320;48.128;11.592;2023-02-13T14:12:59;6.10;99.90
2621;DHT22;1320;48.128;11.592;2023-02-13T14:18:41;6.00;99.90
2621;DHT22;1320;48.128;11.592;2023-02-13T14:31:33;6.00;99.90
2621;DHT22;1320;48.128;11.592;2023-02-13T14:34:00;6.00;99.90
2621;DHT22;1320;48.128;11.592;2023-02-13T14:36:30;6.00;99.90
2621;DHT22;1320;48.128;11.592;2023-02-13T14:39:30;6.00;99.90
2621;DHT22;1320;48.128;11.592;2023-02-13T14:41:59;6.00;99.90
2621;DHT22;1320;48.128;11.592;2023-02-13T14:44:33;6.00;99.90
2621;DHT22;1320;48.128;11.592;2023-02-13T14:49:47;6.00;99.90
2621;DHT22;1320;48.128;11.592;2023-02-13T14:52:22;6.00;99.90
2621;DHT22;1320;48.128;11.592;2023-02-13T14:55:03;6.00;99.90
2621;DHT22;1320;48.128;11.592;2023-02-13T14:57:51;6.10;99.90
2621;DHT22;1320;48.128;11.592;2023-02-13T15:00:30;6.10;99.90
2621;DHT22;1320;48.128;11.592;2023-02-13T15:03:03;6.00;99.90
2621;DHT22;1320;48.128;11.592;2023-02-13T15:05:33;6.00;99.90
2621;DHT22;1320;48.128;11.592;2023-02-13T15:08:14;6.10;99.90
2621;DHT22;1320;48.128;11.592;2023-02-13T15:10:45;6.10;99.90
2621;DHT22;1320;48.128;11.592;2023-02-13T15:13:15;6.10;99.90
2621;DHT22;1320;48.128;11.592;2023-02-13T15:15:44;6.00;99.90
2621;DHT22;1320;48.128;11.592;2023-02-13T15:18:18;6.00;99.90
2621;DHT22;1320;48.128;11.592;2023-02-13T15:20:45;6.00;99.90
2621;DHT22;1320;48.128;11.592;2023-02-13T15:23:31;5.80;99.90
2621;DHT22;1320;48.128;11.592;2023-02-13T15:26:03;5.80;99.90
2621;DHT22;1320;48.128;11.592;2023-02-13T15:28:29;5.70;99.90
2621;DHT22;1320;48.128;11.592;2023-02-13T15:31:16;5.70;99.90
2621;DHT22;1320;48.128;11.592;2023-02-13T15:33:46;5.70;99.90
2621;DHT22;1320;48.128;11.592;2023-02-13T15:36:23;5.70;99.90
2621;DHT22;1320;48.128;11.592;2023-02-13T15:39:00;5.70;99.90
2621;DHT22;1320;48.128;11.592;2023-02-13T15:41:37;5.70;99.90
2621;DHT22;1320;48.128;11.592;2023-02-13T15:44:05;5.70;99.90
2621;DHT22;1320;48.128;11.592;2023-02-13T15:46:33;5.70;99.90
2621;DHT22;1320;48.128;11.592;2023-02-13T15:49:03;5.70;99.90
2621;DHT22;1320;48.128;11.592;2023-02-13T15:51:30;5.70;99.90
2621;DHT22;1320;48.128;11.592;2023-02-13T15:54:02;5.80;99.90
2621;DHT22;1320;48.128;11.592;2023-02-13T15:56:28;5.80;99.90
2621;DHT22;1320;48.128;11.592;2023-02-13T15:58:57;5.80;99.90
2621;DHT22;1320;48.128;11.592;2023-02-13T16:01:23;5.80;99.90
2621;DHT22;1320;48.128;11.592;2023-02-13T16:04:01;5.80;99.90
2621;DHT22;1320;48.128;11.592;2023-02-13T16:06:28;5.80;99.90
2621;DHT22;1320;48.128;11.592;2023-02-13T16:08:55;5.80;99.90
2621;DHT22;1320;48.128;11.592;2023-02-13T16:28:25;5.60;99.90
2621;DHT22;1320;48.128;11.592;2023-02-13T16:31:03;5.50;99.90
2621;DHT22;1320;48.128;11.592;2023-02-13T16:33:30;5.50;99.90
2621;DHT22;1320;48.128;11.592;2023-02-13T16:35:59;5.40;99.90
2621;DHT22;1320;48.128;11.592;2023-02-13T16:44:01;5.30;99.90
2621;DHT22;1320;48.128;11.592;2023-02-13T16:46:36;5.30;99.90
2621;DHT22;1320;48.128;11.592;2023-02-13T16:54:38;5.30;99.90
2621;DHT22;1320;48.128;11.592;2023-02-13T17:02:33;5.40;99.90
2621;DHT22;1320;48.128;11.592;2023-02-13T17:07:36;5.40;99.90
2621;DHT22;1320;48.128;11.592;2023-02-13T17:10:28;5.40;99.90
2621;DHT22;1320;48.128;11.592;2023-02-13T17:13:11;5.40;99.90
2621;DHT22;1320;48.128;11.592;2023-02-13T17:15:44;5.30;99.90
2621;DHT22;1320;48.128;11.592;2023-02-13T17:18:10;5.20;99.90
2621;DHT22;1320;48.128;11.592;2023-02-13T17:20:37;5.20;99.90
2621;DHT22;1320;48.128;11.592;2023-02-13T17:23:06;5.20;99.90
2621;DHT22;1320;48.128;11.592;2023-02-13T17:25:34;5.20;99.90
2621;DHT22;1320;48.128;11.592;2023-02-13T17:28:09;5.20;99.90
2621;DHT22;1320;48.128;11.592;2023-02-13T17:30:35;5.10;99.90
2621;DHT22;1320;48.128;11.592;2023-02-13T17:35:37;5.00;99.90
2621;DHT22;1320;48.128;11.592;2023-02-13T17:38:02;5.00;99.90
2621;DHT22;1320;48.128;11.592;2023-02-13T17:40:28;5.00;99.90
2621;DHT22;1320;48.128;11.592;2023-02-13T17:42:57;5.00;99.90
2621;DHT22;1320;48.128;11.592;2023-02-13T17:45:26;5.00;99.90
2621;DHT22;1320;48.128;11.592;2023-02-13T17:47:52;4.90;99.90
2621;DHT22;1320;48.128;11.592;2023-02-13T17:50:18;4.90;99.90
2621;DHT22;1320;48.128;11.592;2023-02-13T17:52:45;4.90;99.90
2621;DHT22;1320;48.128;11.592;2023-02-13T17:55:21;5.00;99.90
2621;DHT22;1320;48.128;11.592;2023-02-13T17:57:47;5.00;99.90
2621;DHT22;1320;48.128;11.592;2023-02-13T18:00:14;5.10;99.90
2621;DHT22;1320;48.128;11.592;2023-02-13T18:02:40;5.00;99.90
2621;DHT22;1320;48.128;11.592;2023-02-13T18:05:09;5.00;99.90
2621;DHT22;1320;48.128;11.592;2023-02-13T18:07:35;5.00;99.90
2621;DHT22;1320;48.128;11.592;2023-02-13T18:10:01;4.90;99.90
2621;DHT22;1320;48.128;11.592;2023-02-13T18:12:27;5.00;99.90
2621;DHT22;1320;48.128;11.592;2023-02-13T18:14:58;5.00;99.90
2621;DHT22;1320;48.128;11.592;2023-02-13T18:17:24;5.00;99.90
2621;DHT22;1320;48.128;11.592;2023-02-13T18:19:50;5.00;99.90
2621;DHT22;1320;48.128;11.592;2023-02-13T18:22:15;5.00;99.90
2621;DHT22;1320;48.128;11.592;2023-02-13T18:24:41;4.90;99.90
2621;DHT22;1320;48.128;11.592;2023-02-13T18:27:08;4.90;99.90
2621;DHT22;1320;48.128;11.592;2023-02-13T18:29:35;4.80;99.90
2621;DHT22;1320;48.128;11.592;2023-02-13T18:32:02;4.80;99.90
2621;DHT22;1320;48.128;11.592;2023-02-13T18:34:28;4.70;99.90
2621;DHT22;1320;48.128;11.592;2023-02-13T18:36:54;4.70;99.90
2621;DHT22;1320;48.128;11.592;2023-02-13T18:39:21;4.70;99.90
2621;DHT22;1320;48.128;11.592;2023-02-13T18:41:46;4.70;99.90
2621;DHT22;1320;48.128;11.592;2023-02-13T18:44:12;4.60;99.90
2621;DHT22;1320;48.128;11.592;2023-02-13T18:46:38;4.60;99.90
2621;DHT22;1320;48.128;11.592;2023-02-13T18:49:03;4.50;99.90
2621;DHT22;1320;48.128;11.592;2023-02-13T18:51:29;4.50;99.90
2621;DHT22;1320;48.128;11.592;2023-02-13T18:53:55;4.50;99.90
2621;DHT22;1320;48.128;11.592;2023-02-13T18:56:21;4.40;99.90
2621;DHT22;1320;48.128;11.592;2023-02-13T18:58:48;4.40;99.90
2621;DHT22;1320;48.128;11.592;2023-02-13T19:01:15;4.40;99.90
2621;DHT22;1320;48.128;11.592;2023-02-13T19:03:47;4.40;99.90
2621;DHT22;1320;48.128;11.592;2023-02-13T19:06:16;4.30;99.90
2621;DHT22;1320;48.128;11.592;2023-02-13T19:08:42;4.30;99.90
2621;DHT22;1320;48.128;11.592;2023-02-13T19:11:13;4.30;99.90
2621;DHT22;1320;48.128;11.592;2023-02-13T19:13:40;4.30;99.90
2621;DHT22;1320;48.128;11.592;2023-02-13T19:16:11;4.30;99.90
2621;DHT22;1320;48.128;11.592;2023-02-13T19:18:40;4.20;99.90
2621;DHT22;1320;48.128;11.592;2023-02-13T19:21:06;4.20;99.90
2621;DHT22;1320;48.128;11.592;2023-02-13T19:23:32;4.20;99.90
2621;DHT22;1320;48.128;11.592;2023-02-13T19:26:03;4.20;99.90
2621;DHT22;1320;48.128;11.592;2023-02-13T19:28:29;4.20;99.90
2621;DHT22;1320;48.128;11.592;2023-02-13T19:31:03;4.20;99.90
2621;DHT22;1320;48.128;11.592;2023-02-13T19:33:29;4.20;99.90
2621;DHT22;1320;48.128;11.592;2023-02-13T19:35:56;4.10;99.90
2621;DHT22;1320;48.128;11.592;2023-02-13T19:38:22;4.10;99.90
2621;DHT22;1320;48.128;11.592;2023-02-13T19:40:48;4.00;99.90
2621;DHT22;1320;48.128;11.592;2023-02-13T19:43:13;3.90;99.90
2621;DHT22;1320;48.128;11.592;2023-02-13T19:45:39;3.80;99.90
2621;DHT22;1320;48.128;11.592;2023-02-13T19:48:05;3.80;99.90
2621;DHT22;1320;48.128;11.592;2023-02-13T19:50:30;3.80;99.90
2621;DHT22;1320;48.128;11.592;2023-02-13T19:52:56;3.70;99.90
2621;DHT22;1320;48.128;11.592;2023-02-13T19:55:21;3.70;99.90
2621;DHT22;1320;48.128;11.592;2023-02-13T19:57:49;3.60;99.90
2621;DHT22;1320;48.128;11.592;2023-02-13T20:00:15;3.50;99.90
2621;DHT22;1320;48.128;11.592;2023-02-13T20:02:41;3.40;99.90
2621;DHT22;1320;48.128;11.592;2023-02-13T20:05:07;3.30;99.90
2621;DHT22;1320;48.128;11.592;2023-02-13T20:07:33;3.20;99.90
2621;DHT22;1320;48.128;11.592;2023-02-13T20:09:59;3.20;99.90